sensor_id;sensor_type;location;lat;lon;timestamp;P1;durP1;ratioP1;P2;durP2;ratioP2
75935;SDS011;64614;32.062;34.834;2023-06-22T00:01:07;8.98;;;6.90;;
75935;SDS011;64614;32.062;34.834;2023-06-22T00:03:32;10.05;;;6.43;;
75935;SDS011;64614;32.062;34.834;2023-06-22T00:05:58;9.45;;;6.85;;
75935;SDS011;64614;32.062;34.834;2023-06-22T00:08:24;10.50;;;6.90;;
75935;SDS011;64614;32.062;34.834;2023-06-22T00:10:49;11.90;;;7.40;;
75935;SDS011;64614;32.062;34.834;2023-06-22T00:13:16;11.57;;;7.22;;
75935;SDS011;64614;32.062;34.834;2023-06-22T00:15:43;10.88;;;7.53;;
75935;SDS011;64614;32.062;34.834;2023-06-22T00:18:10;11.63;;;8.02;;
75935;SDS011;64614;32.062;34.834;2023-06-22T00:20:36;12.10;;;7.30;;
75935;SDS011;64614;32.062;34.834;2023-06-22T00:23:03;13.27;;;7.95;;
75935;SDS011;64614;32.062;34.834;2023-06-22T00:25:33;14.57;;;7.82;;
75935;SDS011;64614;32.062;34.834;2023-06-22T00:28:08;11.95;;;7.90;;
75935;SDS011;64614;32.062;34.834;2023-06-22T00:30:34;11.50;;;7.07;;
75935;SDS011;64614;32.062;34.834;2023-06-22T00:33:12;11.73;;;7.90;;
75935;SDS011;64614;32.062;34.834;2023-06-22T00:35:38;11.85;;;7.75;;
75935;SDS011;64614;32.062;34.834;2023-06-22T00:38:06;11.05;;;7.75;;
75935;SDS011;64614;32.062;34.834;2023-06-22T00:40:33;13.30;;;8.00;;
75935;SDS011;64614;32.062;34.834;2023-06-22T00:42:59;13.35;;;8.02;;
75935;SDS011;64614;32.062;34.834;2023-06-22T00:45:26;12.80;;;8.40;;
75935;SDS011;64614;32.062;34.834;2023-06-22T00:47:52;12.63;;;8.82;;
75935;SDS011;64614;32.062;34.834;2023-06-22T00:50:22;15.23;;;8.70;;
75935;SDS011;64614;32.062;34.834;2023-06-22T00:55:48;12.63;;;8.35;;
75935;SDS011;64614;32.062;34.834;2023-06-22T00:58:18;12.60;;;8.52;;
75935;SDS011;64614;32.062;34.834;2023-06-22T01:00:46;12.57;;;8.57;;
75935;SDS011;64614;32.062;34.834;2023-06-22T01:03:13;13.05;;;8.57;;
75935;SDS011;64614;32.062;34.834;2023-06-22T01:05:39;13.23;;;8.63;;
75935;SDS011;64614;32.062;34.834;2023-06-22T01:11:09;13.15;;;8.50;;
75935;SDS011;64614;32.062;34.834;2023-06-22T01:16:20;11.95;;;8.63;;
75935;SDS011;64614;32.062;34.834;2023-06-22T01:18:50;12.23;;;8.07;;
75935;SDS011;64614;32.062;34.834;2023-06-22T01:21:20;10.80;;;8.00;;
75935;SDS011;64614;32.062;34.834;2023-06-22T01:24:02;13.05;;;8.75;;
75935;SDS011;64614;32.062;34.834;2023-06-22T01:29:52;13.23;;;8.60;;
75935;SDS011;64614;32.062;34.834;2023-06-22T01:32:33;12.93;;;8.82;;
75935;SDS011;64614;32.062;34.834;2023-06-22T01:35:01;12.20;;;9.02;;
75935;SDS011;64614;32.062;34.834;2023-06-22T01:37:30;12.57;;;9.02;;
75935;SDS011;64614;32.062;34.834;2023-06-22T01:40:01;14.25;;;10.23;;
75935;SDS011;64614;32.062;34.834;2023-06-22T01:42:29;15.43;;;9.10;;
75935;SDS011;64614;32.062;34.834;2023-06-22T01:45:02;15.05;;;9.93;;
75935;SDS011;64614;32.062;34.834;2023-06-22T01:47:30;13.27;;;10.00;;
75935;SDS011;64614;32.062;34.834;2023-06-22T01:49:56;12.57;;;8.38;;
75935;SDS011;64614;32.062;34.834;2023-06-22T01:52:22;11.10;;;7.82;;
75935;SDS011;64614;32.062;34.834;2023-06-22T01:54:48;12.00;;;8.35;;
75935;SDS011;64614;32.062;34.834;2023-06-22T01:57:13;13.70;;;8.43;;
75935;SDS011;64614;32.062;34.834;2023-06-22T01:59:48;10.90;;;7.88;;
75935;SDS011;64614;32.062;34.834;2023-06-22T02:02:39;11.70;;;8.57;;
75935;SDS011;64614;32.062;34.834;2023-06-22T02:05:19;10.90;;;7.60;;
75935;SDS011;64614;32.062;34.834;2023-06-22T02:07:48;11.88;;;7.68;;
75935;SDS011;64614;32.062;34.834;2023-06-22T02:10:22;11.57;;;7.90;;
75935;SDS011;64614;32.062;34.834;2023-06-22T02:12:50;12.45;;;8.52;;
75935;SDS011;64614;32.062;34.834;2023-06-22T02:15:17;11.43;;;8.27;;
75935;SDS011;64614;32.062;34.834;2023-06-22T02:17:44;10.40;;;7.28;;
75935;SDS011;64614;32.062;34.834;2023-06-22T02:20:16;10.05;;;7.60;;
75935;SDS011;64614;32.062;34.834;2023-06-22T02:22:42;10.43;;;7.80;;
75935;SDS011;64614;32.062;34.834;2023-06-22T02:25:08;9.88;;;7.13;;
75935;SDS011;64614;32.062;34.834;2023-06-22T02:27:33;10.45;;;7.32;;
75935;SDS011;64614;32.062;34.834;2023-06-22T02:30:00;10.07;;;7.50;;
75935;SDS011;64614;32.062;34.834;2023-06-22T02:32:27;11.10;;;7.40;;
75935;SDS011;64614;32.062;34.834;2023-06-22T02:34:53;9.93;;;7.25;;
75935;SDS011;64614;32.062;34.834;2023-06-22T02:37:18;10.15;;;7.53;;
75935;SDS011;64614;32.062;34.834;2023-06-22T02:39:44;11.65;;;7.95;;
75935;SDS011;64614;32.062;34.834;2023-06-22T02:42:10;10.60;;;7.40;;
75935;SDS011;64614;32.062;34.834;2023-06-22T02:44:36;11.70;;;8.18;;
75935;SDS011;64614;32.062;34.834;2023-06-22T02:47:02;10.43;;;7.85;;
75935;SDS011;64614;32.062;34.834;2023-06-22T02:49:28;10.77;;;8.07;;
75935;SDS011;64614;32.062;34.834;2023-06-22T02:51:53;10.63;;;7.32;;
75935;SDS011;64614;32.062;34.834;2023-06-22T02:54:20;10.15;;;7.40;;
75935;SDS011;64614;32.062;34.834;2023-06-22T02:56:46;10.75;;;7.70;;
75935;SDS011;64614;32.062;34.834;2023-06-22T02:59:13;11.30;;;7.47;;
75935;SDS011;64614;32.062;34.834;2023-06-22T03:01:38;13.50;;;8.20;;
75935;SDS011;64614;32.062;34.834;2023-06-22T03:04:10;11.45;;;7.85;;
75935;SDS011;64614;32.062;34.834;2023-06-22T03:06:35;10.85;;;7.90;;
75935;SDS011;64614;32.062;34.834;2023-06-22T03:09:02;12.00;;;8.50;;
75935;SDS011;64614;32.062;34.834;2023-06-22T03:11:30;11.90;;;8.40;;
75935;SDS011;64614;32.062;34.834;2023-06-22T03:13:56;12.82;;;8.60;;
75935;SDS011;64614;32.062;34.834;2023-06-22T03:16:22;14.43;;;8.57;;
75935;SDS011;64614;32.062;34.834;2023-06-22T03:18:48;14.48;;;8.68;;
75935;SDS011;64614;32.062;34.834;2023-06-22T03:21:13;11.93;;;8.02;;
75935;SDS011;64614;32.062;34.834;2023-06-22T03:23:40;12.68;;;8.98;;
75935;SDS011;64614;32.062;34.834;2023-06-22T03:26:06;13.35;;;8.52;;
75935;SDS011;64614;32.062;34.834;2023-06-22T03:28:33;12.90;;;9.40;;
75935;SDS011;64614;32.062;34.834;2023-06-22T03:30:59;12.32;;;8.02;;
75935;SDS011;64614;32.062;34.834;2023-06-22T03:33:25;13.60;;;8.32;;
75935;SDS011;64614;32.062;34.834;2023-06-22T03:35:50;13.18;;;8.05;;
75935;SDS011;64614;32.062;34.834;2023-06-22T03:38:16;12.38;;;8.43;;
75935;SDS011;64614;32.062;34.834;2023-06-22T03:40:42;13.65;;;8.82;;
75935;SDS011;64614;32.062;34.834;2023-06-22T03:43:08;15.68;;;8.82;;
75935;SDS011;64614;32.062;34.834;2023-06-22T03:45:34;13.05;;;8.05;;
75935;SDS011;64614;32.062;34.834;2023-06-22T03:48:00;15.45;;;8.57;;
75935;SDS011;64614;32.062;34.834;2023-06-22T03:50:26;13.90;;;8.98;;
75935;SDS011;64614;32.062;34.834;2023-06-22T03:52:52;14.13;;;9.13;;
75935;SDS011;64614;32.062;34.834;2023-06-22T03:55:19;13.77;;;8.75;;
75935;SDS011;64614;32.062;34.834;2023-06-22T03:57:45;14.23;;;8.73;;
75935;SDS011;64614;32.062;34.834;2023-06-22T04:00:11;15.02;;;9.50;;
75935;SDS011;64614;32.062;34.834;2023-06-22T04:02:37;13.98;;;8.98;;
75935;SDS011;64614;32.062;34.834;2023-06-22T04:05:03;12.32;;;8.52;;
75935;SDS011;64614;32.062;34.834;2023-06-22T04:07:29;11.55;;;8.40;;
75935;SDS011;64614;32.062;34.834;2023-06-22T04:09:54;11.55;;;8.23;;
75935;SDS011;64614;32.062;34.834;2023-06-22T04:12:20;14.25;;;9.88;;
75935;SDS011;64614;32.062;34.834;2023-06-22T04:14:45;13.32;;;9.10;;
75935;SDS011;64614;32.062;34.834;2023-06-22T04:17:11;12.85;;;9.45;;
75935;SDS011;64614;32.062;34.834;2023-06-22T04:19:39;14.93;;;10.30;;
75935;SDS011;64614;32.062;34.834;2023-06-22T04:22:05;14.02;;;9.93;;
75935;SDS011;64614;32.062;34.834;2023-06-22T04:24:35;13.60;;;9.18;;
75935;SDS011;64614;32.062;34.834;2023-06-22T04:27:01;15.45;;;10.10;;
75935;SDS011;64614;32.062;34.834;2023-06-22T04:29:28;12.93;;;9.32;;
75935;SDS011;64614;32.062;34.834;2023-06-22T04:31:58;12.90;;;9.80;;
75935;SDS011;64614;32.062;34.834;2023-06-22T04:34:28;12.85;;;9.27;;
75935;SDS011;64614;32.062;34.834;2023-06-22T04:36:54;12.85;;;8.93;;
75935;SDS011;64614;32.062;34.834;2023-06-22T04:39:20;12.20;;;9.60;;
75935;SDS011;64614;32.062;34.834;2023-06-22T04:41:46;11.98;;;9.07;;
75935;SDS011;64614;32.062;34.834;2023-06-22T04:44:12;13.55;;;9.02;;
75935;SDS011;64614;32.062;34.834;2023-06-22T04:46:48;13.25;;;9.05;;
75935;SDS011;64614;32.062;34.834;2023-06-22T04:49:29;12.65;;;9.05;;
75935;SDS011;64614;32.062;34.834;2023-06-22T04:52:00;12.55;;;9.18;;
75935;SDS011;64614;32.062;34.834;2023-06-22T04:54:26;12.23;;;8.95;;
75935;SDS011;64614;32.062;34.834;2023-06-22T04:56:52;13.18;;;9.70;;
75935;SDS011;64614;32.062;34.834;2023-06-22T04:59:24;14.45;;;9.43;;
75935;SDS011;64614;32.062;34.834;2023-06-22T05:01:56;13.70;;;10.48;;
75935;SDS011;64614;32.062;34.834;2023-06-22T05:04:23;16.05;;;11.07;;
75935;SDS011;64614;32.062;34.834;2023-06-22T05:06:50;16.25;;;11.57;;
75935;SDS011;64614;32.062;34.834;2023-06-22T05:09:17;16.45;;;11.40;;
75935;SDS011;64614;32.062;34.834;2023-06-22T05:11:46;18.65;;;12.63;;
75935;SDS011;64614;32.062;34.834;2023-06-22T05:14:12;15.02;;;11.15;;
75935;SDS011;64614;32.062;34.834;2023-06-22T05:16:40;17.08;;;11.82;;
75935;SDS011;64614;32.062;34.834;2023-06-22T05:19:07;17.75;;;12.05;;
75935;SDS011;64614;32.062;34.834;2023-06-22T05:21:33;17.00;;;11.35;;
75935;SDS011;64614;32.062;34.834;2023-06-22T05:23:58;17.42;;;11.77;;
75935;SDS011;64614;32.062;34.834;2023-06-22T05:26:31;16.40;;;11.20;;
75935;SDS011;64614;32.062;34.834;2023-06-22T05:29:00;15.13;;;11.60;;
75935;SDS011;64614;32.062;34.834;2023-06-22T05:31:27;16.92;;;11.43;;
75935;SDS011;64614;32.062;34.834;2023-06-22T05:33:54;14.57;;;10.32;;
75935;SDS011;64614;32.062;34.834;2023-06-22T05:36:20;13.70;;;10.30;;
75935;SDS011;64614;32.062;34.834;2023-06-22T05:38:50;13.73;;;9.45;;
75935;SDS011;64614;32.062;34.834;2023-06-22T05:41:17;13.02;;;9.75;;
75935;SDS011;64614;32.062;34.834;2023-06-22T05:43:42;13.10;;;10.20;;
75935;SDS011;64614;32.062;34.834;2023-06-22T05:46:08;13.90;;;10.75;;
75935;SDS011;64614;32.062;34.834;2023-06-22T05:48:34;14.85;;;10.13;;
75935;SDS011;64614;32.062;34.834;2023-06-22T05:51:00;12.63;;;9.75;;
75935;SDS011;64614;32.062;34.834;2023-06-22T05:53:25;14.43;;;9.95;;
75935;SDS011;64614;32.062;34.834;2023-06-22T05:55:51;13.43;;;10.80;;
75935;SDS011;64614;32.062;34.834;2023-06-22T05:58:17;13.30;;;9.43;;
75935;SDS011;64614;32.062;34.834;2023-06-22T06:00:45;12.85;;;9.55;;
75935;SDS011;64614;32.062;34.834;2023-06-22T06:03:12;12.82;;;10.50;;
75935;SDS011;64614;32.062;34.834;2023-06-22T06:05:42;13.07;;;10.45;;
75935;SDS011;64614;32.062;34.834;2023-06-22T06:08:08;14.13;;;10.55;;
75935;SDS011;64614;32.062;34.834;2023-06-22T06:10:36;13.30;;;10.05;;
75935;SDS011;64614;32.062;34.834;2023-06-22T06:13:02;13.85;;;10.50;;
75935;SDS011;64614;32.062;34.834;2023-06-22T06:15:29;12.13;;;9.18;;
75935;SDS011;64614;32.062;34.834;2023-06-22T06:17:55;13.27;;;9.73;;
75935;SDS011;64614;32.062;34.834;2023-06-22T06:20:22;12.63;;;9.55;;
75935;SDS011;64614;32.062;34.834;2023-06-22T06:22:49;12.57;;;9.45;;
75935;SDS011;64614;32.062;34.834;2023-06-22T06:25:15;12.25;;;8.73;;
75935;SDS011;64614;32.062;34.834;2023-06-22T06:27:42;13.10;;;9.10;;
75935;SDS011;64614;32.062;34.834;2023-06-22T06:30:09;12.15;;;8.95;;
75935;SDS011;64614;32.062;34.834;2023-06-22T06:32:35;11.43;;;8.65;;
75935;SDS011;64614;32.062;34.834;2023-06-22T06:35:01;12.07;;;8.93;;
75935;SDS011;64614;32.062;34.834;2023-06-22T06:37:27;10.65;;;8.43;;
75935;SDS011;64614;32.062;34.834;2023-06-22T06:39:53;10.95;;;7.45;;
75935;SDS011;64614;32.062;34.834;2023-06-22T06:42:18;11.25;;;7.95;;
75935;SDS011;64614;32.062;34.834;2023-06-22T06:44:45;11.15;;;8.40;;
75935;SDS011;64614;32.062;34.834;2023-06-22T06:47:10;10.45;;;7.80;;
75935;SDS011;64614;32.062;34.834;2023-06-22T06:49:36;10.40;;;7.90;;
75935;SDS011;64614;32.062;34.834;2023-06-22T06:52:02;9.88;;;7.03;;
75935;SDS011;64614;32.062;34.834;2023-06-22T06:54:27;10.90;;;7.43;;
75935;SDS011;64614;32.062;34.834;2023-06-22T06:56:53;9.65;;;7.28;;
75935;SDS011;64614;32.062;34.834;2023-06-22T06:59:19;9.75;;;6.90;;
75935;SDS011;64614;32.062;34.834;2023-06-22T07:01:44;9.52;;;6.85;;
75935;SDS011;64614;32.062;34.834;2023-06-22T07:04:10;8.77;;;6.88;;
75935;SDS011;64614;32.062;34.834;2023-06-22T07:06:36;10.00;;;7.22;;
75935;SDS011;64614;32.062;34.834;2023-06-22T07:09:02;9.43;;;6.93;;
75935;SDS011;64614;32.062;34.834;2023-06-22T07:11:28;8.70;;;6.25;;
75935;SDS011;64614;32.062;34.834;2023-06-22T07:13:54;9.30;;;7.18;;
75935;SDS011;64614;32.062;34.834;2023-06-22T07:16:19;8.75;;;6.60;;
75935;SDS011;64614;32.062;34.834;2023-06-22T07:18:45;10.02;;;6.55;;
75935;SDS011;64614;32.062;34.834;2023-06-22T07:21:11;9.10;;;6.45;;
75935;SDS011;64614;32.062;34.834;2023-06-22T07:23:36;8.18;;;5.80;;
75935;SDS011;64614;32.062;34.834;2023-06-22T07:26:02;8.43;;;6.15;;
75935;SDS011;64614;32.062;34.834;2023-06-22T07:28:28;8.88;;;6.30;;
75935;SDS011;64614;32.062;34.834;2023-06-22T07:30:56;8.35;;;6.43;;
75935;SDS011;64614;32.062;34.834;2023-06-22T07:33:22;8.63;;;6.22;;
75935;SDS011;64614;32.062;34.834;2023-06-22T07:35:48;8.20;;;5.90;;
75935;SDS011;64614;32.062;34.834;2023-06-22T07:38:16;8.88;;;6.15;;
75935;SDS011;64614;32.062;34.834;2023-06-22T07:40:41;8.85;;;6.30;;
75935;SDS011;64614;32.062;34.834;2023-06-22T07:43:07;8.73;;;6.40;;
75935;SDS011;64614;32.062;34.834;2023-06-22T07:45:33;8.30;;;6.15;;
75935;SDS011;64614;32.062;34.834;2023-06-22T07:48:00;8.60;;;6.55;;
75935;SDS011;64614;32.062;34.834;2023-06-22T07:50:26;8.07;;;6.10;;
75935;SDS011;64614;32.062;34.834;2023-06-22T07:52:52;8.35;;;6.07;;
75935;SDS011;64614;32.062;34.834;2023-06-22T07:55:18;8.35;;;6.05;;
75935;SDS011;64614;32.062;34.834;2023-06-22T07:57:43;8.32;;;5.85;;
75935;SDS011;64614;32.062;34.834;2023-06-22T08:00:09;8.25;;;6.18;;
75935;SDS011;64614;32.062;34.834;2023-06-22T08:02:40;8.75;;;6.25;;
75935;SDS011;64614;32.062;34.834;2023-06-22T08:05:06;8.80;;;6.00;;
75935;SDS011;64614;32.062;34.834;2023-06-22T08:07:36;7.95;;;5.80;;
75935;SDS011;64614;32.062;34.834;2023-06-22T08:10:03;8.00;;;5.95;;
75935;SDS011;64614;32.062;34.834;2023-06-22T08:12:29;8.30;;;5.93;;
75935;SDS011;64614;32.062;34.834;2023-06-22T08:14:55;9.10;;;6.50;;
75935;SDS011;64614;32.062;34.834;2023-06-22T08:17:22;8.38;;;5.82;;
75935;SDS011;64614;32.062;34.834;2023-06-22T08:19:51;8.48;;;5.90;;
75935;SDS011;64614;32.062;34.834;2023-06-22T08:22:17;8.40;;;6.35;;
75935;SDS011;64614;32.062;34.834;2023-06-22T08:24:43;8.82;;;6.53;;
75935;SDS011;64614;32.062;34.834;2023-06-22T08:27:09;9.07;;;6.63;;
75935;SDS011;64614;32.062;34.834;2023-06-22T08:29:41;9.00;;;6.18;;
75935;SDS011;64614;32.062;34.834;2023-06-22T08:32:09;8.40;;;6.53;;
75935;SDS011;64614;32.062;34.834;2023-06-22T08:34:36;8.65;;;6.25;;
75935;SDS011;64614;32.062;34.834;2023-06-22T08:37:01;8.70;;;6.00;;
75935;SDS011;64614;32.062;34.834;2023-06-22T08:39:31;8.70;;;6.53;;
75935;SDS011;64614;32.062;34.834;2023-06-22T08:41:57;8.32;;;6.13;;
75935;SDS011;64614;32.062;34.834;2023-06-22T08:44:23;9.60;;;6.75;;
75935;SDS011;64614;32.062;34.834;2023-06-22T08:46:48;8.55;;;6.05;;
75935;SDS011;64614;32.062;34.834;2023-06-22T08:49:17;9.18;;;7.00;;
75935;SDS011;64614;32.062;34.834;2023-06-22T08:51:43;8.20;;;6.03;;
75935;SDS011;64614;32.062;34.834;2023-06-22T08:54:10;8.20;;;6.40;;
75935;SDS011;64614;32.062;34.834;2023-06-22T08:56:36;8.60;;;6.40;;
75935;SDS011;64614;32.062;34.834;2023-06-22T08:59:02;8.30;;;6.20;;
75935;SDS011;64614;32.062;34.834;2023-06-22T09:01:27;8.65;;;6.07;;
75935;SDS011;64614;32.062;34.834;2023-06-22T09:03:53;8.35;;;5.88;;
75935;SDS011;64614;32.062;34.834;2023-06-22T09:06:23;10.50;;;6.95;;
75935;SDS011;64614;32.062;34.834;2023-06-22T09:08:49;9.85;;;6.60;;
75935;SDS011;64614;32.062;34.834;2023-06-22T09:11:15;10.43;;;7.18;;
75935;SDS011;64614;32.062;34.834;2023-06-22T09:18:53;8.65;;;5.93;;
75935;SDS011;64614;32.062;34.834;2023-06-22T09:27:03;8.60;;;6.13;;
75935;SDS011;64614;32.062;34.834;2023-06-22T09:31:54;8.55;;;6.10;;
75935;SDS011;64614;32.062;34.834;2023-06-22T09:34:20;8.45;;;5.70;;
75935;SDS011;64614;32.062;34.834;2023-06-22T09:36:47;7.50;;;5.57;;
75935;SDS011;64614;32.062;34.834;2023-06-22T09:39:13;8.60;;;5.60;;
75935;SDS011;64614;32.062;34.834;2023-06-22T09:41:38;7.40;;;5.10;;
75935;SDS011;64614;32.062;34.834;2023-06-22T09:44:04;7.53;;;5.40;;
75935;SDS011;64614;32.062;34.834;2023-06-22T09:46:30;8.75;;;5.30;;
75935;SDS011;64614;32.062;34.834;2023-06-22T09:48:55;8.27;;;5.28;;
75935;SDS011;64614;32.062;34.834;2023-06-22T09:51:24;7.70;;;4.97;;
75935;SDS011;64614;32.062;34.834;2023-06-22T09:53:50;7.75;;;4.88;;
75935;SDS011;64614;32.062;34.834;2023-06-22T09:56:16;6.88;;;4.85;;
75935;SDS011;64614;32.062;34.834;2023-06-22T09:58:42;7.47;;;4.60;;
75935;SDS011;64614;32.062;34.834;2023-06-22T10:01:08;6.80;;;4.68;;
75935;SDS011;64614;32.062;34.834;2023-06-22T10:03:35;7.15;;;4.60;;
75935;SDS011;64614;32.062;34.834;2023-06-22T10:11:11;7.22;;;4.60;;
75935;SDS011;64614;32.062;34.834;2023-06-22T10:13:37;6.15;;;4.00;;
75935;SDS011;64614;32.062;34.834;2023-06-22T10:16:06;6.22;;;4.28;;
75935;SDS011;64614;32.062;34.834;2023-06-22T10:18:32;6.07;;;4.03;;
75935;SDS011;64614;32.062;34.834;2023-06-22T10:20:58;6.30;;;3.97;;
75935;SDS011;64614;32.062;34.834;2023-06-22T10:23:25;5.18;;;3.40;;
75935;SDS011;64614;32.062;34.834;2023-06-22T10:25:53;5.55;;;3.60;;
75935;SDS011;64614;32.062;34.834;2023-06-22T10:28:19;6.10;;;3.92;;
75935;SDS011;64614;32.062;34.834;2023-06-22T10:30:45;5.65;;;3.85;;
75935;SDS011;64614;32.062;34.834;2023-06-22T10:33:11;6.07;;;3.67;;
75935;SDS011;64614;32.062;34.834;2023-06-22T10:35:37;6.10;;;3.92;;
75935;SDS011;64614;32.062;34.834;2023-06-22T10:38:03;5.68;;;3.60;;
75935;SDS011;64614;32.062;34.834;2023-06-22T10:40:30;5.82;;;3.65;;
75935;SDS011;64614;32.062;34.834;2023-06-22T10:42:56;5.90;;;3.95;;
75935;SDS011;64614;32.062;34.834;2023-06-22T10:45:22;5.57;;;3.10;;
75935;SDS011;64614;32.062;34.834;2023-06-22T10:47:48;9.30;;;3.63;;
75935;SDS011;64614;32.062;34.834;2023-06-22T10:50:15;5.95;;;3.63;;
75935;SDS011;64614;32.062;34.834;2023-06-22T10:52:40;4.75;;;2.88;;
75935;SDS011;64614;32.062;34.834;2023-06-22T10:55:07;5.78;;;3.70;;
75935;SDS011;64614;32.062;34.834;2023-06-22T10:57:33;5.43;;;3.53;;
75935;SDS011;64614;32.062;34.834;2023-06-22T10:59:59;5.25;;;3.60;;
75935;SDS011;64614;32.062;34.834;2023-06-22T11:02:25;5.10;;;3.25;;
75935;SDS011;64614;32.062;34.834;2023-06-22T11:04:53;5.03;;;3.35;;
75935;SDS011;64614;32.062;34.834;2023-06-22T11:07:19;6.03;;;3.53;;
75935;SDS011;64614;32.062;34.834;2023-06-22T11:09:44;4.88;;;3.05;;
75935;SDS011;64614;32.062;34.834;2023-06-22T11:12:10;5.20;;;3.58;;
75935;SDS011;64614;32.062;34.834;2023-06-22T11:14:35;5.65;;;3.30;;
75935;SDS011;64614;32.062;34.834;2023-06-22T11:17:01;5.07;;;3.42;;
75935;SDS011;64614;32.062;34.834;2023-06-22T11:19:27;5.32;;;3.33;;
75935;SDS011;64614;32.062;34.834;2023-06-22T11:21:52;5.40;;;3.55;;
75935;SDS011;64614;32.062;34.834;2023-06-22T11:24:18;5.72;;;3.55;;
75935;SDS011;64614;32.062;34.834;2023-06-22T11:26:44;5.30;;;3.38;;
75935;SDS011;64614;32.062;34.834;2023-06-22T11:29:10;5.63;;;3.60;;
75935;SDS011;64614;32.062;34.834;2023-06-22T11:31:35;5.13;;;3.30;;
75935;SDS011;64614;32.062;34.834;2023-06-22T11:34:01;5.28;;;3.40;;
75935;SDS011;64614;32.062;34.834;2023-06-22T11:36:28;5.00;;;3.20;;
75935;SDS011;64614;32.062;34.834;2023-06-22T11:38:54;6.00;;;3.42;;
75935;SDS011;64614;32.062;34.834;2023-06-22T11:41:20;5.63;;;3.33;;
75935;SDS011;64614;32.062;34.834;2023-06-22T11:43:45;7.68;;;3.50;;
75935;SDS011;64614;32.062;34.834;2023-06-22T11:46:11;5.80;;;3.67;;
75935;SDS011;64614;32.062;34.834;2023-06-22T11:48:37;6.95;;;4.00;;
75935;SDS011;64614;32.062;34.834;2023-06-22T11:51:03;4.65;;;3.20;;
75935;SDS011;64614;32.062;34.834;2023-06-22T11:53:28;6.95;;;3.58;;
75935;SDS011;64614;32.062;34.834;2023-06-22T11:55:54;5.47;;;3.58;;
75935;SDS011;64614;32.062;34.834;2023-06-22T11:58:20;6.30;;;3.42;;
75935;SDS011;64614;32.062;34.834;2023-06-22T12:00:47;5.78;;;3.40;;
75935;SDS011;64614;32.062;34.834;2023-06-22T12:03:13;8.38;;;3.80;;
75935;SDS011;64614;32.062;34.834;2023-06-22T12:05:42;6.35;;;3.92;;
75935;SDS011;64614;32.062;34.834;2023-06-22T12:11:39;6.43;;;3.72;;
75935;SDS011;64614;32.062;34.834;2023-06-22T12:14:05;6.65;;;3.78;;
75935;SDS011;64614;32.062;34.834;2023-06-22T12:16:30;6.07;;;3.72;;
75935;SDS011;64614;32.062;34.834;2023-06-22T12:18:56;6.50;;;4.20;;
75935;SDS011;64614;32.062;34.834;2023-06-22T12:21:22;6.43;;;3.80;;
75935;SDS011;64614;32.062;34.834;2023-06-22T12:23:47;5.35;;;3.60;;
75935;SDS011;64614;32.062;34.834;2023-06-22T12:26:13;5.85;;;3.90;;
75935;SDS011;64614;32.062;34.834;2023-06-22T12:28:39;5.25;;;3.50;;
75935;SDS011;64614;32.062;34.834;2023-06-22T12:31:04;4.97;;;3.53;;
75935;SDS011;64614;32.062;34.834;2023-06-22T12:33:30;5.78;;;3.53;;
75935;SDS011;64614;32.062;34.834;2023-06-22T12:35:56;6.18;;;4.38;;
75935;SDS011;64614;32.062;34.834;2023-06-22T12:38:28;5.82;;;3.97;;
75935;SDS011;64614;32.062;34.834;2023-06-22T12:40:54;7.75;;;4.75;;
75935;SDS011;64614;32.062;34.834;2023-06-22T12:43:20;7.88;;;5.15;;
75935;SDS011;64614;32.062;34.834;2023-06-22T12:45:45;9.50;;;6.45;;
75935;SDS011;64614;32.062;34.834;2023-06-22T12:48:11;8.68;;;6.70;;
75935;SDS011;64614;32.062;34.834;2023-06-22T12:50:38;9.27;;;6.57;;
75935;SDS011;64614;32.062;34.834;2023-06-22T12:53:03;9.55;;;6.68;;
75935;SDS011;64614;32.062;34.834;2023-06-22T12:55:31;9.95;;;7.55;;
75935;SDS011;64614;32.062;34.834;2023-06-22T12:57:57;10.63;;;7.55;;
75935;SDS011;64614;32.062;34.834;2023-06-22T13:00:23;9.70;;;6.93;;
75935;SDS011;64614;32.062;34.834;2023-06-22T13:02:48;9.57;;;7.28;;
75935;SDS011;64614;32.062;34.834;2023-06-22T13:05:14;9.95;;;7.60;;
75935;SDS011;64614;32.062;34.834;2023-06-22T13:07:40;9.57;;;7.88;;
75935;SDS011;64614;32.062;34.834;2023-06-22T13:10:07;9.95;;;7.93;;
75935;SDS011;64614;32.062;34.834;2023-06-22T13:12:33;10.35;;;7.43;;
75935;SDS011;64614;32.062;34.834;2023-06-22T13:15:00;10.77;;;7.75;;
75935;SDS011;64614;32.062;34.834;2023-06-22T13:17:28;9.90;;;7.30;;
75935;SDS011;64614;32.062;34.834;2023-06-22T13:19:54;9.25;;;7.45;;
75935;SDS011;64614;32.062;34.834;2023-06-22T13:22:26;10.00;;;7.50;;
75935;SDS011;64614;32.062;34.834;2023-06-22T13:24:53;10.18;;;7.60;;
75935;SDS011;64614;32.062;34.834;2023-06-22T13:27:19;10.52;;;7.90;;
75935;SDS011;64614;32.062;34.834;2023-06-22T13:29:45;11.45;;;7.55;;
75935;SDS011;64614;32.062;34.834;2023-06-22T13:32:10;10.63;;;7.25;;
75935;SDS011;64614;32.062;34.834;2023-06-22T13:34:37;10.30;;;7.93;;
75935;SDS011;64614;32.062;34.834;2023-06-22T13:37:03;10.68;;;7.47;;
75935;SDS011;64614;32.062;34.834;2023-06-22T13:39:30;10.45;;;7.55;;
75935;SDS011;64614;32.062;34.834;2023-06-22T13:41:57;12.77;;;7.88;;
75935;SDS011;64614;32.062;34.834;2023-06-22T13:44:23;10.98;;;7.72;;
75935;SDS011;64614;32.062;34.834;2023-06-22T13:46:52;10.75;;;7.18;;
75935;SDS011;64614;32.062;34.834;2023-06-22T13:49:18;9.75;;;6.95;;
75935;SDS011;64614;32.062;34.834;2023-06-22T13:51:44;9.48;;;7.30;;
75935;SDS011;64614;32.062;34.834;2023-06-22T13:54:09;9.38;;;7.22;;
75935;SDS011;64614;32.062;34.834;2023-06-22T13:56:35;11.18;;;7.70;;
75935;SDS011;64614;32.062;34.834;2023-06-22T13:59:01;10.82;;;7.47;;
75935;SDS011;64614;32.062;34.834;2023-06-22T14:01:26;9.65;;;7.22;;
75935;SDS011;64614;32.062;34.834;2023-06-22T14:03:52;9.27;;;6.80;;
75935;SDS011;64614;32.062;34.834;2023-06-22T14:06:18;9.75;;;7.85;;
75935;SDS011;64614;32.062;34.834;2023-06-22T14:08:43;10.52;;;7.72;;
75935;SDS011;64614;32.062;34.834;2023-06-22T14:11:09;9.00;;;6.55;;
75935;SDS011;64614;32.062;34.834;2023-06-22T14:13:35;9.63;;;7.70;;
75935;SDS011;64614;32.062;34.834;2023-06-22T14:16:01;9.93;;;7.68;;
75935;SDS011;64614;32.062;34.834;2023-06-22T14:18:27;9.82;;;7.70;;
75935;SDS011;64614;32.062;34.834;2023-06-22T14:20:52;10.60;;;7.18;;
75935;SDS011;64614;32.062;34.834;2023-06-22T14:23:18;10.48;;;8.13;;
75935;SDS011;64614;32.062;34.834;2023-06-22T14:25:44;11.68;;;8.18;;
75935;SDS011;64614;32.062;34.834;2023-06-22T14:28:09;11.82;;;7.57;;
75935;SDS011;64614;32.062;34.834;2023-06-22T14:30:35;9.52;;;7.40;;
75935;SDS011;64614;32.062;34.834;2023-06-22T14:33:01;9.25;;;7.07;;
75935;SDS011;64614;32.062;34.834;2023-06-22T14:35:26;9.88;;;7.80;;
75935;SDS011;64614;32.062;34.834;2023-06-22T14:37:52;9.75;;;8.23;;
75935;SDS011;64614;32.062;34.834;2023-06-22T14:40:17;9.50;;;7.55;;
75935;SDS011;64614;32.062;34.834;2023-06-22T14:42:43;9.57;;;7.70;;
75935;SDS011;64614;32.062;34.834;2023-06-22T14:45:12;9.43;;;7.65;;
75935;SDS011;64614;32.062;34.834;2023-06-22T14:47:38;10.50;;;7.82;;
75935;SDS011;64614;32.062;34.834;2023-06-22T14:50:05;9.90;;;7.35;;
75935;SDS011;64614;32.062;34.834;2023-06-22T14:52:31;10.00;;;7.63;;
75935;SDS011;64614;32.062;34.834;2023-06-22T14:54:56;10.13;;;7.28;;
75935;SDS011;64614;32.062;34.834;2023-06-22T14:57:22;10.90;;;8.05;;